Etusivu
METAR-TAF:

METAR-TAF

Lentoasemat :

Rundu, Namibia

Leveyspiiri: 17-57-20S, Pituuspiiri: 019-43-25E, korkeus merenpinnasta: 1106 m

Tämänhetkinen sää

Tämä raportti tehtiin 1 tunti ja 22 minuuttia sitten, kello 19.00 UTC
Tuuli 1 kn etelästä/kaakosta
Lämpötila 19°C
Kosteus 26%
Ilmanpaine 1025 hPa

METAR: FYRU 221900Z AUTO 15001KT //// // ////// 19/M01 Q1025

Aika: 22:22 (20:22 UTC)

Sääennuste

Tämä raportti tehtiin 3 tuntia ja 22 minuuttia sitten, kello 17.00 UTC
Ennuste voimassa 22. päivästä klo 18 UTC - 23. päivään klo 03 UTC
Tuuli kn pohjoisesta
Näkyvyys 10 km tai enemmän
ei pilviä alle 1500 m:ssä eikä cumulonimbus-pilviä

TAF: FYRU 221700Z 2218/2303 00000KT CAVOK

Säähavainnot ja -ennusteet yli 4000 lentoasemalta (METAR- ja TAF-raportit).

Käytössä olevat sääasemat on merkitty karttaan keltaisilla ja punaisilla pisteillä.

Aseta hiiri pisteen päälle nähdäksesi sääaseman nimen.

Klikkaa sitten nähdäksesi säähavainnot ja -ennusteet.

Kartan vaihtaminen: klikkaa mustalla rastilla varustettuja vihreitä pisteitä, niin voit zoomata sisään; viivalla varustettua vihreää pistettä, niin voit zoomata ulos tai vihreitä nuolia, niin pääset viereisille kartoille.


METAR-TAF: